INFORMACIÓN METAR y TAF
METAR FOR SCRM
ADDS - METARS form results

(1726 UTC 06 July 2020)
Data provider http://aviationweather.gov/metar/data/
 
METAR text: SCRM 061700Z 25004KT 190V290 BKN020 M03/M04 Q1018 NOSIG
Conditions at: SCRM (TENIENTE R MARSH, CL) observed 1700 UTC 06 July 2020
Temperature: -3.0°C (27°F)
Dewpoint: -4.0°C (25°F) [RH = 93%]
Pressure (altimeter): 30.06 inches Hg (1018.0 mb)
Winds: from the WSW (250 degrees) at 5 MPH (4 knots; 2.1 m/s)
Visibility: missing
Ceiling: 2000 feet AGL
Clouds: broken clouds at 2000 feet AGL
Weather: no significant weather observed at this time

 MAPA DE AEROPUERTO

 INFORMACIÓN DE PISTA
Pista 11 Longitud 4238 ft Ancho 125 ft
Elevación 142 ft Umbral desplazado 0 ft Rumbo de pista 122
Pista 29 Longitud 4238 ft Ancho 125 ft
Elevación 127 ft Umbral desplazado 0 ft Rumbo de pista 302

 FRECUANCIAS DEL AEROPUERTO
Tipo APP Nombre MARSH APP Frecuencia 118.1 MHZ
Tipo TWR Nombre TWR Frecuencia 118.1 MHZ

 RADIO AYUDAS DEL AEROPUERTO
Tipo VOR-DME Nombre Isla Rey Jorge Frecuencia 113300 KHZ
Tipo NDB Nombre Isla Rey Jorge Frecuencia 360 KHZ